This is the latest recevied weather packets stored in our database for station/object SA3VCC-15. If no packets are shown the sender has not sent any weather packets the latest 10 day(s).
| Time | Temp. | Humidity | Pressure | Rain* | Wind** | Luminosity | Snow |
|---|---|---|---|---|---|---|---|
| 1777687328 | 10° C | 57% | 1009.1 hPa | - | - | - | - |
| 1777686068 | 10.56° C | 55% | 1009.2 hPa | - | - | - | - |
| 1777684808 | 11.11° C | 54% | 1009.2 hPa | - | - | - | - |
| 1777683548 | 11.67° C | 50% | 1009.4 hPa | - | - | - | - |
| 1777682288 | 12.22° C | 48% | 1009.6 hPa | - | - | - | - |
| 1777681028 | 12.78° C | 46% | 1009.8 hPa | - | - | - | - |
| 1777679768 | 12.78° C | 46% | 1009.9 hPa | - | - | - | - |
| 1777678508 | 13.33° C | 44% | 1010.1 hPa | - | - | - | - |
| 1777675988 | 13.89° C | 43% | 1010.4 hPa | - | - | - | - |
| 1777674728 | 14.44° C | 42% | 1010.4 hPa | - | - | - | - |
| 1777673468 | 15° C | 41% | 1010.4 hPa | - | - | - | - |
| 1777672208 | 15° C | 41% | 1010.4 hPa | - | - | - | - |
| 1777670948 | 15.56° C | 40% | 1010.5 hPa | - | - | - | - |
| 1777669688 | 15.56° C | 40% | 1010.5 hPa | - | - | - | - |
| 1777668428 | 15° C | 44% | 1010.6 hPa | - | - | - | - |
| 1777667168 | 15.56° C | 44% | 1010.6 hPa | - | - | - | - |
| 1777663388 | 16.67° C | 41% | 1010.7 hPa | - | - | - | - |
| 1777662128 | 17.22° C | 39% | 1010.6 hPa | - | - | - | - |
| 1777660868 | 18.89° C | 31% | 1010.4 hPa | - | - | - | - |
| 1777654568 | 24.44° C | 21% | 1010.4 hPa | - | - | - | - |
| 1777653307 | 30° C | 16% | 1010.6 hPa | - | - | - | - |
| 1777650787 | 31.11° C | 15% | 1010.9 hPa | - | - | - | - |
| 1777649527 | 32.78° C | 13% | 1011.1 hPa | - | - | - | - |
| 1777648267 | 32.78° C | 13% | 1011.2 hPa | - | - | - | - |
| 1777647007 | 32.78° C | 14% | 1011.5 hPa | - | - | - | - |
* Rain since midnight (hover to see other rain measurements)
** Current wind speed in m/s (hover to see current wind gust speed)